Lillis, Kansas
Current Conditions -  °F | °C
As of 1:15 AM on Sunday 23 Nov 2014 (Local Time) from KMYZ Reporting Station
Overcast Overcast  
Wind Chill: 12°   Ceiling: 1500
Heat Index: 12°   Visibility: 10mi
Dew Point: 10°   Wind: 15mph
Humidity: 88%   Direction: 200°SSW
Pressure: 29.56"   Gusts: 18mph
Location:  39.7199°N, 96.4404°W
Report Text: KMYZ 230715Z AUTO 20013G16KT 10SM OVC015 12/10 A2956 RMK AO2
Loading
Personal Weather Stations






























Interactive Weather Map New forecast layout! Learn more

10-Day Weather Forecast

Advertisements
Track Severe Weather on mobile